• 1385014 10153382300060425 128216538 n
  • 3
  • 6
  • 7
  • 1
  • 10
  • 未命名
  • 121
  • 55
  • 2
  • cargo

Click here and log in to see your monthly flight duties. 請按此登入個人班表區

Welcome aboard

Current Weather

[source: ADDS]
METAR
RCTP 171905Z 05022KT 9999 FEW020 BKN045 BKN060 13/05 Q1028 WS R05L NOSIG RMK A3037 =
TAF
TAF RCTP 171700Z 1718/1824 06015KT 9999 FEW012 BKN032 TEMPO 1800/1806 06020KT TEMPO 1812/1818 09010KT TEMPO 1818/1824 12005KT =